Time;durP1;ratioP1;P1;durP2;ratioP2;P2;SDS_P1;SDS_P2;PMS_P1;PMS_P2;Temp;Humidity;BMP_temperature;BMP_pressure;BME280_temperature;BME280_humidity;BME280_pressure;Samples;Min_cycle;Max_cycle;Signal;HPM_P1;HPM_P2
2022/05/07 00:00:50;;;;;;;1.75;0.93;;;;;;;21.02;54.00;100961.56;5064201;28;20097;-60
2022/05/07 00:03:16;;;;;;;1.65;0.70;;;;;;;21.02;53.95;100968.72;5064035;28;20032;-59
2022/05/07 00:05:41;;;;;;;1.17;0.68;;;;;;;21.02;53.83;100968.72;5062186;28;20750;-59
2022/05/07 00:08:07;;;;;;;3.08;0.85;;;;;;;21.02;53.75;100960.75;5064106;28;20028;-59
2022/05/07 00:10:33;;;;;;;2.17;0.90;;;;;;;21.02;54.11;100964.22;5066633;28;20040;-60
2022/05/07 00:12:58;;;;;;;1.60;0.70;;;;;;;21.01;53.81;100965.25;5065823;28;20056;-60
2022/05/07 00:15:24;;;;;;;0.88;0.52;;;;;;;21.02;53.78;100968.72;5064774;28;20626;-58
2022/05/07 00:18:01;;;;;;;1.50;0.70;;;;;;;21.02;53.80;100963.41;5065172;28;20039;-60
2022/05/07 00:20:28;;;;;;;3.75;0.95;;;;;;;21.01;54.04;100962.59;5065325;28;20440;-60
2022/05/07 00:22:54;;;;;;;1.40;0.98;;;;;;;21.02;53.75;100958.13;5063477;28;20032;-60
2022/05/07 00:25:20;;;;;;;2.10;0.85;;;;;;;21.02;53.95;100956.28;5058415;28;20028;-61
2022/05/07 00:27:46;;;;;;;3.05;1.00;;;;;;;21.01;53.74;100951.19;5065547;28;20032;-62
2022/05/07 00:30:12;;;;;;;2.30;1.10;;;;;;;21.01;53.95;100953.84;5065522;28;20371;-60
2022/05/07 00:32:37;;;;;;;1.40;0.93;;;;;;;20.98;53.95;100948.94;5064870;28;20102;-60
2022/05/07 00:35:03;;;;;;;2.35;0.85;;;;;;;20.99;53.80;100947.91;5066395;28;20028;-60
2022/05/07 00:37:29;;;;;;;2.28;1.20;;;;;;;20.98;54.11;100946.28;5066444;28;20035;-59
2022/05/07 00:39:54;;;;;;;1.38;0.77;;;;;;;20.98;53.84;100949.75;5068437;28;20398;-60
2022/05/07 00:42:20;;;;;;;1.10;0.70;;;;;;;20.97;54.06;100942.00;5069353;28;20052;-61
2022/05/07 00:44:46;;;;;;;1.52;0.50;;;;;;;20.97;53.90;100947.31;5065969;28;20052;-59
2022/05/07 00:47:14;;;;;;;1.40;0.70;;;;;;;20.96;54.14;100940.38;5069377;28;20078;-59
2022/05/07 00:49:47;;;;;;;2.78;0.80;;;;;;;20.95;53.86;100941.38;5068876;28;20040;-60
2022/05/07 00:52:18;;;;;;;3.67;0.73;;;;;;;20.95;53.94;100946.69;5069563;28;20033;-60
2022/05/07 00:54:45;;;;;;;1.40;0.80;;;;;;;20.95;54.00;100942.19;5066847;28;20040;-61
2022/05/07 00:57:12;;;;;;;0.90;0.60;;;;;;;20.94;54.00;100937.91;5067472;28;20038;-60
2022/05/07 00:59:37;;;;;;;1.52;0.73;;;;;;;20.94;54.15;100945.06;5068316;28;20032;-60
2022/05/07 01:02:03;;;;;;;1.88;0.90;;;;;;;20.93;53.92;100941.59;5068833;28;20032;-60
2022/05/07 01:04:29;;;;;;;1.65;0.90;;;;;;;20.94;53.80;100943.22;5066539;28;20044;-59
2022/05/07 01:06:54;;;;;;;2.45;0.77;;;;;;;20.95;54.04;100938.75;5066043;28;20092;-60
2022/05/07 01:09:20;;;;;;;1.25;0.93;;;;;;;20.96;53.92;100935.06;5067224;28;20029;-61
2022/05/07 01:11:46;;;;;;;1.08;0.60;;;;;;;20.96;53.74;100930.59;5068669;28;20051;-59
2022/05/07 01:14:12;;;;;;;1.17;0.65;;;;;;;20.97;54.03;100926.13;5068738;28;20035;-59
2022/05/07 01:16:37;;;;;;;1.70;0.80;;;;;;;20.96;54.12;100919.19;5066425;28;20538;-60
2022/05/07 01:19:03;;;;;;;1.35;0.73;;;;;;;20.98;54.05;100923.25;5067812;28;20029;-60
2022/05/07 01:21:29;;;;;;;2.47;0.70;;;;;;;20.98;54.07;100920.63;5068421;28;20036;-60
2022/05/07 01:23:54;;;;;;;1.58;0.80;;;;;;;20.98;53.63;100911.84;5067210;28;21165;-60
2022/05/07 01:26:22;;;;;;;2.03;0.80;;;;;;;20.99;53.83;100924.06;5068366;28;20109;-59
2022/05/07 01:28:49;;;;;;;1.35;0.80;;;;;;;21.00;53.82;100921.22;5067071;28;20376;-59
2022/05/07 01:31:14;;;;;;;1.52;0.77;;;;;;;21.00;53.66;100915.94;5067158;28;20028;-61
2022/05/07 01:33:40;;;;;;;1.92;0.98;;;;;;;20.98;53.43;100907.38;5068481;28;20043;-60
2022/05/07 01:36:16;;;;;;;1.00;0.70;;;;;;;20.99;53.95;100914.31;5067057;28;20036;-59
2022/05/07 01:38:42;;;;;;;1.27;0.60;;;;;;;20.98;53.99;100909.19;5066523;28;20060;-58
2022/05/07 01:41:07;;;;;;;1.20;0.70;;;;;;;20.97;53.80;100913.69;5068217;28;20123;-59
2022/05/07 01:43:33;;;;;;;1.13;0.52;;;;;;;20.96;53.88;100904.09;5066494;28;20058;-61
2022/05/07 01:46:02;;;;;;;3.58;0.90;;;;;;;20.96;53.68;100905.94;5066694;28;20056;-61
2022/05/07 01:48:28;;;;;;;1.98;0.90;;;;;;;20.95;53.77;100902.47;5065401;28;20028;-61
2022/05/07 01:50:53;;;;;;;1.63;0.70;;;;;;;20.94;53.65;100902.66;5067802;28;20044;-60
2022/05/07 01:53:19;;;;;;;2.13;0.70;;;;;;;20.94;53.65;100900.03;5066013;28;20029;-61
2022/05/07 01:55:45;;;;;;;1.23;0.77;;;;;;;20.93;53.83;100903.69;5065921;28;20084;-61
2022/05/07 01:58:11;;;;;;;1.55;0.90;;;;;;;20.92;53.70;100897.56;5067538;28;20813;-60
2022/05/07 02:00:40;;;;;;;2.40;0.80;;;;;;;20.92;53.70;100899.41;5065861;28;20037;-59
2022/05/07 02:03:06;;;;;;;1.15;0.80;;;;;;;20.92;53.94;100907.34;5067279;28;20051;-59
2022/05/07 02:05:31;;;;;;;1.17;0.88;;;;;;;20.92;53.75;100908.16;5065776;28;20528;-59
2022/05/07 02:07:57;;;;;;;1.55;0.70;;;;;;;20.91;53.66;100901.25;5067132;28;20114;-59
2022/05/07 02:12:58;;;;;;;1.23;0.75;;;;;;;20.88;53.90;100902.47;5246832;22;20063;-60
2022/05/07 02:15:24;;;;;;;0.82;0.57;;;;;;;20.87;53.82;100900.81;5088676;28;20467;-60
2022/05/07 02:17:49;;;;;;;1.45;0.70;;;;;;;20.88;53.74;100899.00;5088274;28;20027;-63
2022/05/07 02:20:15;;;;;;;0.93;0.50;;;;;;;20.87;53.68;100898.19;5088703;28;20031;-61
2022/05/07 02:22:40;;;;;;;0.85;0.50;;;;;;;20.88;53.81;100893.69;5088207;28;20314;-61
2022/05/07 02:25:07;;;;;;;2.10;0.77;;;;;;;20.88;53.54;100894.50;5088383;28;20035;-61
2022/05/07 02:27:32;;;;;;;1.38;0.75;;;;;;;20.88;53.64;100891.88;5088208;28;20032;-63
2022/05/07 02:29:58;;;;;;;1.30;0.50;;;;;;;20.88;54.07;100888.41;5088618;28;20027;-62
2022/05/07 02:32:23;;;;;;;1.67;0.70;;;;;;;20.90;53.62;100893.50;5088127;28;20499;-62
2022/05/07 02:34:49;;;;;;;1.15;0.63;;;;;;;20.90;53.65;100890.84;5069795;28;20028;-62
2022/05/07 02:37:14;;;;;;;0.85;0.50;;;;;;;20.90;53.78;100888.19;5088408;28;20073;-60
2022/05/07 02:39:39;;;;;;;0.93;0.50;;;;;;;20.89;53.87;100887.38;5088268;28;20024;-61
2022/05/07 02:44:50;;;;;;;1.00;0.40;;;;;;;20.87;53.97;100881.47;5088634;28;20101;-63
2022/05/07 02:47:16;;;;;;;1.48;0.52;;;;;;;20.86;53.75;100883.31;5087997;28;20568;-61
2022/05/07 02:49:41;;;;;;;1.63;0.80;;;;;;;20.86;53.96;100888.59;5088173;28;20107;-61
2022/05/07 02:52:07;;;;;;;1.40;0.70;;;;;;;20.86;53.94;100874.53;5088028;28;20472;-61
2022/05/07 02:54:32;;;;;;;1.20;0.60;;;;;;;20.85;54.04;100873.72;5087654;28;20114;-61
2022/05/07 02:56:58;;;;;;;1.38;0.73;;;;;;;20.86;53.98;100869.25;5088416;28;20028;-61
2022/05/07 02:59:24;;;;;;;0.80;0.50;;;;;;;20.86;53.85;100872.72;5087791;28;20467;-61
2022/05/07 03:01:49;;;;;;;2.25;0.70;;;;;;;20.87;53.89;100873.53;5087663;28;20024;-61
2022/05/07 03:04:15;;;;;;;1.42;0.60;;;;;;;20.88;53.97;100875.16;5088017;28;20032;-61
2022/05/07 03:06:40;;;;;;;2.25;0.57;;;;;;;20.88;53.64;100869.88;5087631;28;20024;-61
2022/05/07 03:09:07;;;;;;;1.42;0.60;;;;;;;20.88;53.59;100868.03;5087792;28;20400;-62
2022/05/07 03:11:34;;;;;;;1.48;0.77;;;;;;;20.89;53.62;100863.56;5087313;28;20093;-63
2022/05/07 03:14:03;;;;;;;1.85;0.68;;;;;;;20.87;53.87;100871.69;5087550;28;20056;-61
2022/05/07 03:16:28;;;;;;;2.15;0.50;;;;;;;20.88;53.45;100870.69;5087411;28;20059;-61
2022/05/07 03:18:54;;;;;;;1.52;0.77;;;;;;;20.88;53.60;100870.69;5087208;28;20116;-61
2022/05/07 03:21:19;;;;;;;0.80;0.60;;;;;;;20.90;53.66;100867.00;5087259;28;20035;-62
2022/05/07 03:23:46;;;;;;;1.25;0.70;;;;;;;20.89;53.92;100863.56;5087716;28;20016;-63
2022/05/07 03:26:12;;;;;;;2.20;0.63;;;;;;;20.88;53.84;100865.38;5087480;28;20036;-60
2022/05/07 03:28:38;;;;;;;1.70;0.70;;;;;;;20.90;53.77;100864.38;5087629;28;20036;-61
2022/05/07 03:31:04;;;;;;;1.73;0.45;;;;;;;20.90;53.66;100856.41;5087716;28;20035;-63
2022/05/07 03:33:30;;;;;;;0.57;0.43;;;;;;;20.90;53.82;100861.72;5087415;28;20095;-62
2022/05/07 03:35:56;;;;;;;0.85;0.50;;;;;;;20.88;53.51;100865.38;5087359;28;20559;-62
2022/05/07 03:38:22;;;;;;;1.98;0.60;;;;;;;20.88;53.52;100864.56;5087403;28;20502;-59
2022/05/07 03:40:48;;;;;;;1.42;0.40;;;;;;;20.88;53.75;100859.28;5087214;28;20028;-60
2022/05/07 03:43:15;;;;;;;1.20;0.40;;;;;;;20.89;53.79;100855.59;5087547;28;20020;-61
2022/05/07 03:45:40;;;;;;;1.52;0.70;;;;;;;20.89;53.58;100860.91;5087571;28;20031;-60
2022/05/07 03:48:06;;;;;;;1.02;0.63;;;;;;;20.89;53.51;100858.25;5087642;28;20024;-61
2022/05/07 03:50:32;;;;;;;1.63;0.57;;;;;;;20.86;53.78;100862.13;5087348;28;20028;-61
2022/05/07 03:55:42;;;;;;;0.90;0.50;;;;;;;20.84;53.82;100856.22;5087134;28;20131;-61
2022/05/07 03:58:11;;;;;;;0.80;0.50;;;;;;;20.84;53.54;100856.22;5087233;28;20202;-62
2022/05/07 04:00:37;;;;;;;2.10;0.60;;;;;;;20.84;53.93;100853.56;5087183;28;20422;-63
2022/05/07 04:03:03;;;;;;;0.95;0.50;;;;;;;20.83;53.85;100857.22;5086988;28;20051;-61
2022/05/07 04:05:29;;;;;;;1.50;0.40;;;;;;;20.83;53.81;100851.13;5087274;28;20094;-60
2022/05/07 04:07:55;;;;;;;1.77;0.60;;;;;;;20.83;53.45;100851.13;5087401;28;20470;-62
2022/05/07 04:10:20;;;;;;;1.00;0.52;;;;;;;20.82;53.95;100855.59;5089426;28;20421;-61
2022/05/07 04:12:51;;;;;;;1.13;0.70;;;;;;;20.80;53.86;100852.34;5090699;28;20040;-62
2022/05/07 04:15:17;;;;;;;1.10;0.73;;;;;;;20.81;53.95;100853.16;5091096;28;20417;-60
2022/05/07 04:17:42;;;;;;;1.17;0.57;;;;;;;20.80;53.79;100847.03;5091225;28;20032;-62
2022/05/07 04:20:09;;;;;;;1.48;0.57;;;;;;;20.80;53.67;100852.34;5090686;28;20102;-62
2022/05/07 04:22:35;;;;;;;2.22;0.50;;;;;;;20.79;53.94;100850.72;5091042;28;20059;-62
2022/05/07 04:25:02;;;;;;;2.33;0.50;;;;;;;20.79;54.12;100856.03;5090843;28;20028;-63
2022/05/07 04:27:27;;;;;;;0.98;0.55;;;;;;;20.79;53.82;100845.44;5090523;28;20101;-62
2022/05/07 04:29:53;;;;;;;0.95;0.57;;;;;;;20.78;53.65;100854.41;5090889;28;20016;-60
2022/05/07 04:32:18;;;;;;;1.17;0.65;;;;;;;20.76;53.92;100853.78;5090786;28;20074;-62
2022/05/07 04:34:43;;;;;;;1.13;0.50;;;;;;;20.77;53.84;100854.59;5090718;28;20028;-60
2022/05/07 04:37:09;;;;;;;1.05;0.50;;;;;;;20.77;53.85;100860.72;5090581;28;20032;-62
2022/05/07 04:39:34;;;;;;;1.00;0.55;;;;;;;20.77;53.70;100846.66;5090993;28;20147;-61
2022/05/07 04:42:03;;;;;;;1.50;0.40;;;;;;;20.78;53.65;100854.41;5090381;28;20136;-63
2022/05/07 04:44:28;;;;;;;1.00;0.40;;;;;;;20.78;53.76;100846.44;5090449;28;20037;-61
2022/05/07 04:46:54;;;;;;;0.60;0.40;;;;;;;20.78;53.74;100845.63;5090762;28;20088;-60
2022/05/07 04:49:21;;;;;;;1.15;0.50;;;;;;;20.79;53.43;100849.91;5090536;28;20046;-62
2022/05/07 04:51:50;;;;;;;1.17;0.50;;;;;;;20.79;53.49;100852.56;5090725;28;20058;-61
2022/05/07 04:54:17;;;;;;;1.35;0.50;;;;;;;20.80;53.85;100854.97;5090024;28;20130;-61
2022/05/07 04:56:43;;;;;;;3.00;0.50;;;;;;;20.81;53.70;100858.44;5090357;28;20142;-61
2022/05/07 04:59:08;;;;;;;2.03;0.77;;;;;;;20.80;53.77;100847.03;5090014;28;20119;-60
2022/05/07 05:01:34;;;;;;;4.65;0.70;;;;;;;20.81;53.61;100861.91;5090167;28;20028;-62
2022/05/07 05:03:59;;;;;;;1.55;0.77;;;;;;;20.81;53.67;100861.09;5089792;28;20031;-63
2022/05/07 05:06:24;;;;;;;2.47;0.43;;;;;;;20.82;53.94;100854.78;5089954;28;20032;-63
2022/05/07 05:08:50;;;;;;;1.08;0.45;;;;;;;20.82;53.74;100860.06;5089694;28;20118;-62
2022/05/07 05:11:15;;;;;;;0.93;0.40;;;;;;;20.82;53.96;100857.44;5090176;28;20028;-61
2022/05/07 05:13:41;;;;;;;1.77;0.40;;;;;;;20.82;53.88;100860.06;5089764;28;20490;-62
2022/05/07 05:16:06;;;;;;;0.95;0.45;;;;;;;20.82;53.64;100865.38;5089678;28;20448;-63
2022/05/07 05:18:31;;;;;;;1.85;0.40;;;;;;;20.82;53.73;100860.88;5089928;28;20052;-61
2022/05/07 05:20:57;;;;;;;0.95;0.60;;;;;;;20.83;53.92;100867.81;5088569;28;20119;-61
2022/05/07 05:23:23;;;;;;;2.15;0.30;;;;;;;20.83;53.90;100857.22;5089537;28;20021;-59
2022/05/07 05:25:48;;;;;;;1.33;0.60;;;;;;;20.82;53.83;100855.59;5090059;28;20024;-61
2022/05/07 05:28:14;;;;;;;2.30;0.50;;;;;;;20.82;53.62;100860.06;5089734;28;20031;-60
2022/05/07 05:30:39;;;;;;;1.05;0.50;;;;;;;20.80;53.96;100862.91;5090012;28;20036;-64
2022/05/07 05:33:05;;;;;;;1.58;0.60;;;;;;;20.79;53.89;100869.28;5089694;28;20384;-61
2022/05/07 05:35:30;;;;;;;1.15;0.45;;;;;;;20.79;53.74;100871.91;5089898;28;20426;-61
2022/05/07 05:37:56;;;;;;;1.45;0.40;;;;;;;20.79;53.95;100861.31;5089309;28;20190;-60
2022/05/07 05:40:21;;;;;;;2.25;0.50;;;;;;;20.77;54.06;100873.94;5089453;28;20048;-63
2022/05/07 05:42:47;;;;;;;1.17;0.40;;;;;;;20.77;53.75;100868.66;5089245;28;20028;-60
2022/05/07 05:45:12;;;;;;;1.63;0.50;;;;;;;20.78;53.91;100870.28;5089022;28;20024;-61
2022/05/07 05:47:38;;;;;;;1.40;0.40;;;;;;;20.78;53.67;100880.88;5089431;28;20028;-63
2022/05/07 05:50:04;;;;;;;0.88;0.43;;;;;;;20.77;54.11;100879.25;5089257;28;20198;-63
2022/05/07 05:52:29;;;;;;;0.65;0.40;;;;;;;20.78;53.41;100883.53;5089265;28;20048;-63
2022/05/07 05:54:55;;;;;;;0.95;0.50;;;;;;;20.78;53.67;100880.88;5089268;28;20036;-61
2022/05/07 05:57:22;;;;;;;2.03;0.30;;;;;;;20.78;53.54;100888.81;5089199;28;20024;-62
2022/05/07 05:59:47;;;;;;;0.80;0.40;;;;;;;20.78;53.58;100886.16;5070961;28;20427;-61
2022/05/07 06:02:15;;;;;;;1.02;0.50;;;;;;;20.78;53.72;100888.00;5089102;28;20024;-62
2022/05/07 06:04:41;;;;;;;1.17;0.40;;;;;;;20.77;53.77;100889.84;5089044;28;20027;-63
2022/05/07 06:07:06;;;;;;;2.08;0.50;;;;;;;20.78;53.58;100890.66;5089012;28;20441;-61
2022/05/07 06:09:32;;;;;;;0.80;0.38;;;;;;;20.77;53.54;100895.13;5089009;28;20425;-62
2022/05/07 06:11:59;;;;;;;1.52;0.60;;;;;;;20.77;53.58;100899.59;5088340;28;20467;-61
2022/05/07 06:14:25;;;;;;;0.82;0.50;;;;;;;20.76;53.85;100887.38;5088887;28;20056;-60
2022/05/07 06:16:51;;;;;;;0.88;0.50;;;;;;;20.74;53.61;100892.88;5088430;28;20464;-62
2022/05/07 06:19:16;;;;;;;1.10;0.47;;;;;;;20.75;53.94;100891.06;5088524;28;20028;-60
2022/05/07 06:21:42;;;;;;;1.15;0.50;;;;;;;20.74;53.88;100890.22;5088481;28;20028;-61
2022/05/07 06:29:36;;;;;;;1.70;0.57;;;;;;;20.72;54.13;100894.09;5088721;28;20190;-61
2022/05/07 06:32:02;;;;;;;2.60;0.45;;;;;;;20.70;53.81;100889.00;5087813;28;20032;-62
2022/05/07 06:34:28;;;;;;;0.80;0.50;;;;;;;20.71;53.78;100887.16;5088323;28;20032;-63
2022/05/07 06:36:54;;;;;;;0.80;0.43;;;;;;;20.71;53.81;100885.34;5088521;28;20467;-60
2022/05/07 06:39:20;;;;;;;1.08;0.65;;;;;;;20.71;53.71;100885.34;5087780;28;20031;-61
2022/05/07 06:41:48;;;;;;;1.15;0.60;;;;;;;20.71;53.67;100889.81;5088161;28;20090;-61
2022/05/07 06:44:13;;;;;;;1.30;0.73;;;;;;;20.70;53.99;100888.19;5088042;28;20059;-62
2022/05/07 06:46:39;;;;;;;0.98;0.60;;;;;;;20.69;53.77;100890.03;5087668;28;20119;-63
2022/05/07 06:49:04;;;;;;;4.50;0.60;;;;;;;20.69;53.67;100890.03;5087964;28;20065;-60
2022/05/07 06:51:32;;;;;;;0.80;0.50;;;;;;;20.69;53.53;100892.66;5087872;28;20403;-60
2022/05/07 06:53:57;;;;;;;1.70;0.50;;;;;;;20.70;53.90;100894.28;5087884;28;20400;-63
2022/05/07 06:56:23;;;;;;;0.82;0.50;;;;;;;20.71;53.87;100892.47;5087743;28;20028;-61
2022/05/07 06:58:49;;;;;;;1.02;0.40;;;;;;;20.71;53.86;100889.81;5087782;28;20536;-62
2022/05/07 07:01:15;;;;;;;0.80;0.40;;;;;;;20.73;53.63;100898.38;5084398;28;20075;-63
2022/05/07 07:03:40;;;;;;;1.55;0.50;;;;;;;20.74;53.61;100894.72;5086322;28;20064;-61
2022/05/07 07:06:06;;;;;;;1.55;0.40;;;;;;;20.73;53.49;100896.53;5087741;28;20418;-63
2022/05/07 07:08:31;;;;;;;0.82;0.63;;;;;;;20.74;53.59;100895.53;5086265;28;20479;-62
2022/05/07 07:10:58;;;;;;;0.70;0.40;;;;;;;20.76;53.85;100895.34;5082244;28;20039;-64
2022/05/07 07:13:23;;;;;;;1.15;0.50;;;;;;;20.75;53.52;100891.88;5084650;28;20063;-62
2022/05/07 07:15:49;;;;;;;0.65;0.40;;;;;;;20.76;54.08;100892.69;5081811;28;20020;-61
2022/05/07 07:18:14;;;;;;;1.08;0.50;;;;;;;20.76;53.80;100892.69;5085533;28;20035;-60
2022/05/07 07:20:42;;;;;;;1.13;0.70;;;;;;;20.80;54.88;100888.59;5084646;28;20656;-62
2022/05/07 07:23:11;;;;;;;2.17;0.80;;;;;;;20.84;55.35;100895.13;5086415;28;20031;-62
2022/05/07 07:25:40;;;;;;;4.72;1.48;;;;;;;20.91;56.03;100897.78;5086164;28;20024;-62
2022/05/07 07:28:10;;;;;;;8.73;5.50;;;;;;;20.95;56.63;100894.53;5085845;28;20035;-60
2022/05/07 07:30:36;;;;;;;3.75;3.42;;;;;;;20.94;56.67;100897.38;5086424;28;20187;-61
2022/05/07 07:33:02;;;;;;;2.97;1.80;;;;;;;20.93;57.21;100898.41;5068307;28;20059;-60
2022/05/07 07:35:28;;;;;;;2.22;1.35;;;;;;;20.92;57.80;100894.94;5083702;28;20035;-61
2022/05/07 07:37:53;;;;;;;5.13;1.80;;;;;;;20.95;57.38;100896.34;5086496;28;20032;-61
2022/05/07 07:40:19;;;;;;;7.72;1.17;;;;;;;20.93;57.63;100891.25;5085492;28;20028;-60
2022/05/07 07:42:46;;;;;;;2.78;1.02;;;;;;;20.94;57.72;100894.72;5086290;28;20400;-62
2022/05/07 07:47:59;;;;;;;1.27;0.73;;;;;;;20.92;56.75;100899.41;5084273;28;20050;-60
2022/05/07 07:50:27;;;;;;;2.60;0.50;;;;;;;20.90;56.85;100888.19;5085197;28;20039;-63
2022/05/07 07:53:02;;;;;;;3.97;0.50;;;;;;;20.89;56.55;100895.34;5086536;28;20055;-63
2022/05/07 07:55:28;;;;;;;2.75;0.40;;;;;;;20.86;56.43;100901.84;5083144;28;20173;-62
2022/05/07 07:58:01;;;;;;;1.90;0.60;;;;;;;20.86;56.27;100903.69;5082314;28;20555;-65
2022/05/07 08:00:27;;;;;;;2.67;0.50;;;;;;;20.85;55.83;100892.28;5084499;28;20123;-62
2022/05/07 08:02:56;;;;;;;1.63;0.52;;;;;;;20.86;55.56;100893.09;5078086;28;20035;-61
2022/05/07 08:05:23;;;;;;;1.65;0.57;;;;;;;20.86;55.44;100888.59;5075626;28;20394;-64
2022/05/07 08:13:18;;;;;;;4.00;0.63;;;;;;;20.87;56.04;100892.06;5081508;28;20073;-65
2022/05/07 08:15:44;;;;;;;2.85;0.63;;;;;;;20.88;55.83;100891.88;5083821;28;20036;-61
2022/05/07 08:18:10;;;;;;;1.25;0.40;;;;;;;20.89;55.85;100892.69;5082416;28;20032;-61
2022/05/07 08:20:35;;;;;;;3.25;0.70;;;;;;;20.88;55.86;100896.34;5083089;28;20038;-60
2022/05/07 08:23:01;;;;;;;3.20;0.45;;;;;;;20.86;55.63;100899.19;5076426;28;20028;-62
2022/05/07 08:25:26;;;;;;;2.70;0.70;;;;;;;20.87;55.77;100898.19;5080303;28;20211;-60
2022/05/07 08:27:51;;;;;;;3.25;0.70;;;;;;;20.87;56.29;100897.38;5079300;28;20046;-60
2022/05/07 08:30:17;;;;;;;3.30;0.80;;;;;;;20.87;57.15;100897.38;5076393;28;20055;-62
2022/05/07 08:32:42;;;;;;;6.68;1.80;;;;;;;20.88;58.11;100897.16;5077986;28;20024;-60
2022/05/07 08:35:08;;;;;;;6.85;1.50;;;;;;;20.91;58.97;100897.78;5077188;28;20024;-61
2022/05/07 08:37:33;;;;;;;5.28;1.35;;;;;;;20.92;58.92;100892.28;5078162;28;20024;-62
2022/05/07 08:40:01;;;;;;;2.58;1.30;;;;;;;20.91;58.42;100889.84;5076952;28;20468;-60
2022/05/07 08:42:30;;;;;;;2.40;1.65;;;;;;;20.92;58.24;100900.22;5079234;28;20426;-61
2022/05/07 08:44:57;;;;;;;3.67;1.50;;;;;;;20.92;57.93;100900.22;5079709;28;20483;-61
2022/05/07 08:47:23;;;;;;;4.53;1.52;;;;;;;20.94;58.00;100903.50;5081760;28;20514;-59
2022/05/07 08:49:52;;;;;;;6.03;1.23;;;;;;;20.94;57.72;100905.31;5083114;28;20043;-62
2022/05/07 08:52:19;;;;;;;4.70;1.40;;;;;;;20.95;58.10;100893.72;5079210;28;20042;-59
2022/05/07 08:54:48;;;;;;;3.95;1.45;;;;;;;20.95;58.35;100902.47;5081997;28;20500;-61
2022/05/07 08:57:15;;;;;;;1.98;1.20;;;;;;;20.95;58.05;100899.81;5085727;28;20040;-60
2022/05/07 08:59:42;;;;;;;4.10;1.27;;;;;;;20.95;57.89;100904.31;5082047;28;20044;-62
2022/05/07 09:02:08;;;;;;;2.42;1.10;;;;;;;20.96;57.50;100900.63;5083811;28;20039;-58
2022/05/07 09:04:36;;;;;;;3.17;1.13;;;;;;;20.96;57.54;100898.00;5083971;28;20024;-62
2022/05/07 09:07:03;;;;;;;2.22;0.80;;;;;;;20.96;57.75;100903.28;5078401;28;20044;-59
2022/05/07 09:09:31;;;;;;;1.65;1.10;;;;;;;20.95;57.71;100902.47;5080704;28;20032;-59
2022/05/07 09:11:58;;;;;;;1.45;1.05;;;;;;;20.94;57.59;100887.59;5078797;28;20097;-58
2022/05/07 09:14:30;;;;;;;2.17;0.80;;;;;;;20.93;57.51;100893.91;5083473;28;20392;-61
2022/05/07 09:16:58;;;;;;;2.08;0.95;;;;;;;20.94;57.54;100892.09;5079559;28;20024;-59
2022/05/07 09:19:27;;;;;;;2.53;1.08;;;;;;;20.95;57.35;100896.34;5084858;28;20035;-59
2022/05/07 09:22:09;;;;;;;2.67;1.10;;;;;;;20.92;57.30;100892.28;5083702;28;20028;-60
2022/05/07 09:24:35;;;;;;;1.88;0.88;;;;;;;20.94;57.35;100894.72;5083437;28;20036;-61
2022/05/07 09:27:03;;;;;;;2.45;0.70;;;;;;;20.93;57.71;100891.25;5079059;28;20031;-59
2022/05/07 09:29:30;;;;;;;2.40;1.00;;;;;;;20.94;57.63;100886.78;5083520;28;20492;-59
2022/05/07 09:32:07;;;;;;;1.80;0.60;;;;;;;20.91;57.66;100889.84;5084258;28;20086;-59
2022/05/07 09:37:20;;;;;;;1.77;0.88;;;;;;;20.88;57.49;100885.75;5068497;28;20059;-58
2022/05/07 09:39:50;;;;;;;1.35;0.80;;;;;;;20.87;57.46;100884.94;5083844;28;20123;-59
2022/05/07 09:42:20;;;;;;;2.13;0.80;;;;;;;20.87;57.34;100879.63;5067821;28;20345;-60
2022/05/07 09:44:46;;;;;;;1.80;0.85;;;;;;;20.87;57.26;100882.28;5084668;28;20024;-60
2022/05/07 09:47:13;;;;;;;1.83;1.13;;;;;;;20.88;57.41;100883.09;5083593;28;20020;-60
2022/05/07 09:52:29;;;;;;;1.00;0.90;;;;;;;20.85;57.69;100881.66;5083119;28;20539;-59
2022/05/07 09:57:39;;;;;;;2.55;0.90;;;;;;;20.84;57.74;100874.75;5080195;28;20101;-60
2022/05/07 10:00:25;;;;;;;1.83;0.70;;;;;;;20.84;57.65;100869.44;5084856;28;20506;-60
2022/05/07 10:03:06;;;;;;;2.35;0.55;;;;;;;20.82;57.64;100873.31;5076164;28;20055;-58
2022/05/07 10:06:04;;;;;;;1.48;0.77;;;;;;;20.78;57.86;100870.28;5068031;28;20325;-60
2022/05/07 10:08:33;;;;;;;1.92;0.80;;;;;;;20.79;57.96;100869.28;5086233;28;20374;-59
2022/05/07 10:11:00;;;;;;;1.80;0.80;;;;;;;20.80;57.69;100862.91;5082238;28;20029;-59
2022/05/07 10:13:26;;;;;;;0.90;0.45;;;;;;;20.81;57.62;100874.34;5072496;28;20500;-58
2022/05/07 10:16:03;;;;;;;0.63;0.50;;;;;;;20.79;57.83;100861.31;5084278;28;20174;-58
2022/05/07 10:18:41;;;;;;;1.67;0.40;;;;;;;20.80;57.91;100864.75;5066363;28;20154;-59
2022/05/07 10:21:12;;;;;;;10.82;0.70;;;;;;;20.80;57.61;100862.91;5085152;28;20036;-58
2022/05/07 10:23:52;;;;;;;1.48;0.40;;;;;;;20.80;57.84;100867.41;5069326;28;20040;-60
2022/05/07 10:26:21;;;;;;;2.70;0.95;;;;;;;20.81;57.80;100859.25;5085929;28;20140;-59
2022/05/07 10:28:47;;;;;;;1.50;0.50;;;;;;;20.81;57.69;100867.19;5087164;28;20230;-59
2022/05/07 10:31:20;;;;;;;0.75;0.50;;;;;;;20.81;57.58;100856.63;5087591;28;20051;-58
2022/05/07 10:33:46;;;;;;;1.02;0.47;;;;;;;20.83;57.74;100851.13;5087517;28;20495;-59
2022/05/07 10:36:12;;;;;;;2.38;0.45;;;;;;;20.85;57.80;100855.19;5086539;28;20371;-58
2022/05/07 10:38:39;;;;;;;1.30;0.70;;;;;;;20.85;57.65;100854.38;5087969;28;20032;-59
2022/05/07 10:41:19;;;;;;;2.63;0.57;;;;;;;20.83;57.57;100849.28;5087314;28;20399;-60
2022/05/07 10:44:00;;;;;;;3.10;0.90;;;;;;;20.83;57.59;100851.94;5086072;28;20460;-60
2022/05/07 10:46:42;;;;;;;0.95;0.65;;;;;;;20.83;57.23;100849.28;5087352;28;20044;-59
2022/05/07 10:49:07;;;;;;;2.05;0.63;;;;;;;20.86;57.73;100842.78;5087267;28;20115;-60
2022/05/07 10:51:34;;;;;;;1.30;0.68;;;;;;;20.86;57.34;100846.22;5087447;28;20111;-61
2022/05/07 10:54:03;;;;;;;1.55;0.57;;;;;;;20.86;57.38;100840.94;5084442;28;20077;-59
2022/05/07 10:56:33;;;;;;;0.88;0.60;;;;;;;20.87;57.29;100837.28;5086283;28;20028;-59
2022/05/07 10:58:59;;;;;;;0.80;0.45;;;;;;;20.87;57.16;100839.91;5085918;28;20035;-59
2022/05/07 11:01:27;;;;;;;1.40;0.82;;;;;;;20.86;57.33;100838.28;5087201;28;20032;-60
2022/05/07 11:04:14;;;;;;;0.80;0.50;;;;;;;20.84;57.30;100836.84;5084472;28;20387;-60
2022/05/07 11:06:40;;;;;;;1.20;0.50;;;;;;;20.84;57.33;100828.91;5081584;28;20474;-58
2022/05/07 11:09:06;;;;;;;1.50;0.60;;;;;;;20.84;57.41;100832.38;5081759;28;20391;-59
2022/05/07 11:11:44;;;;;;;2.97;0.60;;;;;;;20.81;57.80;100827.47;5083689;28;20071;-57
2022/05/07 11:14:10;;;;;;;1.45;0.55;;;;;;;20.81;57.79;100827.47;5085039;28;20104;-56
2022/05/07 11:16:41;;;;;;;2.53;0.75;;;;;;;20.79;57.64;100826.09;5083467;28;20031;-56
2022/05/07 11:19:06;;;;;;;1.52;0.60;;;;;;;20.73;57.73;100824.25;5077698;28;20020;-56
2022/05/07 11:21:36;;;;;;;3.13;0.70;;;;;;;20.71;57.49;100826.28;5084501;28;20105;-57
2022/05/07 11:24:02;;;;;;;7.15;1.20;;;;;;;20.72;57.62;100819.97;5081509;28;20028;-56
2022/05/07 11:26:27;;;;;;;3.45;0.85;;;;;;;20.71;57.93;100821.78;5076465;28;20028;-56
2022/05/07 11:28:53;;;;;;;2.75;1.08;;;;;;;20.70;58.52;100814.88;5080981;28;20083;-54
2022/05/07 11:31:27;;;;;;;2.75;1.20;;;;;;;20.70;58.72;100814.88;5084532;28;20047;-56
2022/05/07 11:34:27;;;;;;;1.83;0.80;;;;;;;20.69;58.37;100817.72;5086059;28;20110;-57
2022/05/07 11:36:52;;;;;;;4.22;0.80;;;;;;;20.69;57.90;100810.59;5083719;28;20566;-56
2022/05/07 11:39:19;;;;;;;5.70;1.27;;;;;;;20.68;56.59;100808.16;5082887;28;20123;-57
2022/05/07 11:41:52;;;;;;;1.85;1.10;;;;;;;20.62;55.83;100807.13;5073232;28;20039;-59
2022/05/07 11:47:23;;;;;;;5.43;1.83;;;;;;;20.77;57.78;100799.81;5085149;28;20055;-57
2022/05/07 11:50:05;;;;;;;5.72;4.07;;;;;;;21.00;58.93;100799.38;5083288;28;20533;-58
2022/05/07 11:52:30;;;;;;;5.82;3.10;;;;;;;21.10;59.02;100801.63;5070397;28;20036;-60
2022/05/07 11:54:56;;;;;;;2.97;2.28;;;;;;;21.14;58.77;100797.53;5066962;28;20514;-60
2022/05/07 11:57:29;;;;;;;2.90;1.48;;;;;;;21.13;58.71;100795.91;5069084;28;20058;-59